createdAt,value
2023-03-21T06:48:55.663Z,11.02
2023-03-21T06:53:57.718Z,11.15
2023-03-21T06:59:00.023Z,11.37
2023-03-21T07:04:02.157Z,11.59
2023-03-21T07:09:05.837Z,11.69
2023-03-21T07:14:07.911Z,11.85
2023-03-21T07:19:10.028Z,11.77
2023-03-21T07:24:12.108Z,11.70
2023-03-21T07:29:14.232Z,11.71
2023-03-21T07:34:17.027Z,11.71
2023-03-21T07:39:20.561Z,12.15
2023-03-21T07:44:24.425Z,12.43
2023-03-21T07:49:26.673Z,12.71
2023-03-21T07:54:28.845Z,13.05
2023-03-21T07:59:31.044Z,13.42
2023-03-21T08:04:37.840Z,13.56
2023-03-21T08:09:40.021Z,13.84
2023-03-21T08:14:42.193Z,14.26
2023-03-21T08:19:45.055Z,14.62
2023-03-21T08:24:47.126Z,14.93
2023-03-21T08:29:49.211Z,15.29
2023-03-21T08:34:52.285Z,15.43
2023-03-21T08:39:55.015Z,15.70
2023-03-21T08:44:57.061Z,16.00
2023-03-21T08:49:59.372Z,16.19
2023-03-21T08:55:02.383Z,16.33
2023-03-21T09:00:15.626Z,16.67
2023-03-21T09:05:18.502Z,16.83
2023-03-21T09:10:23.156Z,17.32
2023-03-21T09:15:28.997Z,17.54
2023-03-21T09:20:33.021Z,17.78
2023-03-21T09:25:36.761Z,17.90
2023-03-21T09:30:39.139Z,18.04
2023-03-21T09:35:41.920Z,18.45
2023-03-21T09:41:25.826Z,18.47
2023-03-21T09:46:54.946Z,18.66
2023-03-21T09:52:03.640Z,18.69
2023-03-21T09:57:19.648Z,18.99
2023-03-21T10:02:36.731Z,18.99
2023-03-21T10:07:44.620Z,19.20
2023-03-21T10:12:49.936Z,19.16
2023-03-21T10:17:57.301Z,19.33
2023-03-21T10:23:03.306Z,19.73
2023-03-21T10:28:07.611Z,20.06
2023-03-21T10:33:14.541Z,20.50
2023-03-21T10:38:19.988Z,20.40
2023-03-21T10:43:27.982Z,21.20
2023-03-21T10:48:36.170Z,21.09
2023-03-21T10:53:49.822Z,20.83
2023-03-21T10:58:52.766Z,20.94
2023-03-21T11:04:01.162Z,21.74
2023-03-21T11:09:15.807Z,22.43
2023-03-21T11:14:31.740Z,22.74
2023-03-21T11:19:36.444Z,23.17
2023-03-21T11:24:39.538Z,22.95
2023-03-21T11:29:48.780Z,23.22
2023-03-21T11:35:03.748Z,22.57
2023-03-21T11:40:25.644Z,23.08
2023-03-21T11:45:29.939Z,23.44
2023-03-21T11:50:41.954Z,23.13
2023-03-21T11:56:02.539Z,22.82
2023-03-21T12:01:13.088Z,22.96
2023-03-21T12:06:21.342Z,23.48
2023-03-21T12:11:51.389Z,22.18
2023-03-21T12:16:59.247Z,22.04
2023-03-21T12:22:04.332Z,21.77
2023-03-21T12:27:06.474Z,22.01
2023-03-21T12:32:27.180Z,21.88
2023-03-21T12:37:55.495Z,22.44
2023-03-21T12:43:22.984Z,23.02
2023-03-21T12:48:42.071Z,23.58
2023-03-21T12:54:04.457Z,22.47
2023-03-21T12:59:20.755Z,21.40
2023-03-21T13:04:39.090Z,20.37
2023-03-21T13:09:42.268Z,19.62
2023-03-21T13:15:18.365Z,18.60
2023-03-21T13:20:40.925Z,19.33
2023-03-21T13:25:47.053Z,22.49
2023-03-21T13:30:50.268Z,24.52
2023-03-21T13:36:08.264Z,26.90
2023-03-21T13:41:17.562Z,24.22
2023-03-21T13:46:26.055Z,22.28
2023-03-21T13:51:28.144Z,22.02
2023-03-21T13:56:53.499Z,24.27
2023-03-21T14:02:20.424Z,35.36
2023-03-21T14:07:31.610Z,36.72
2023-03-21T14:12:44.251Z,38.60
2023-03-21T14:17:57.709Z,39.27
2023-03-21T14:23:00.116Z,39.51
2023-03-21T14:28:07.713Z,39.77
2023-03-21T14:33:23.124Z,39.02
2023-03-21T14:38:34.701Z,37.56
2023-03-21T14:43:36.763Z,38.43
2023-03-21T14:48:38.933Z,37.56
2023-03-21T14:53:42.874Z,37.58
2023-03-21T14:58:47.204Z,37.61
2023-03-21T15:03:52.092Z,37.49
2023-03-21T15:08:57.121Z,37.45
2023-03-21T15:14:02.851Z,33.54
2023-03-21T15:19:06.436Z,28.62
2023-03-21T15:24:27.278Z,27.10
2023-03-21T15:29:30.263Z,25.24
2023-03-21T15:34:32.591Z,23.66
2023-03-21T15:39:36.420Z,23.37
2023-03-21T15:44:45.859Z,21.36
2023-03-21T15:49:54.154Z,21.03
2023-03-21T15:54:56.869Z,19.76
2023-03-21T16:00:21.647Z,20.33
2023-03-21T16:05:34.395Z,19.85
2023-03-21T16:10:38.362Z,19.33
2023-03-21T16:15:40.935Z,18.24
2023-03-21T16:20:45.216Z,17.79
2023-03-21T16:25:47.466Z,17.83
2023-03-21T16:30:49.560Z,17.16
2023-03-21T16:35:52.163Z,16.70
2023-03-21T16:40:54.230Z,16.44
2023-03-21T16:45:56.387Z,16.12
2023-03-21T16:50:58.530Z,15.82
2023-03-21T16:56:02.802Z,15.75
2023-03-21T17:01:05.046Z,15.58
2023-03-21T17:06:07.777Z,15.40
2023-03-21T17:11:20.139Z,15.17
2023-03-21T17:16:26.938Z,15.01
2023-03-21T17:21:29.720Z,14.86
2023-03-21T17:26:31.819Z,14.79
2023-03-21T17:31:36.949Z,14.67
2023-03-21T17:36:41.555Z,14.52
2023-03-21T17:41:43.658Z,14.32
2023-03-21T17:46:46.462Z,14.20
2023-03-21T17:51:48.726Z,14.19
2023-03-21T17:56:51.752Z,14.09
2023-03-21T18:01:53.951Z,13.90
2023-03-21T18:06:59.821Z,13.83
2023-03-21T18:12:02.614Z,13.83
2023-03-21T18:17:04.694Z,13.65
2023-03-21T18:22:06.772Z,13.61
2023-03-21T18:27:08.951Z,13.44
2023-03-21T18:32:11.407Z,13.44
2023-03-21T18:37:14.731Z,13.36
2023-03-21T18:42:19.810Z,13.15
2023-03-21T18:47:25.188Z,13.07
2023-03-21T18:52:27.400Z,13.02
2023-03-21T18:57:36.905Z,12.94
2023-03-21T19:02:46.237Z,12.82
2023-03-21T19:07:50.588Z,12.74
2023-03-21T19:12:54.832Z,12.61
2023-03-21T19:23:21.115Z,12.59
2023-03-21T19:28:23.251Z,12.42
2023-03-21T19:33:25.373Z,12.30
2023-03-21T19:38:27.605Z,12.31
2023-03-21T19:43:33.031Z,12.14
2023-03-21T19:48:38.014Z,12.14
2023-03-21T19:53:40.564Z,12.14
2023-03-21T19:58:42.723Z,12.09
2023-03-21T20:03:44.825Z,12.00
2023-03-21T20:09:31.075Z,11.88
2023-03-21T20:14:09.378Z,11.91
2023-03-21T20:19:14.590Z,11.72
2023-03-21T20:24:17.742Z,11.77
2023-03-21T20:30:07.191Z,11.65
2023-03-21T20:34:44.448Z,11.66
2023-03-21T20:39:46.658Z,11.62
2023-03-21T20:44:58.327Z,11.60
2023-03-21T20:50:01.310Z,11.65
2023-03-21T20:55:04.226Z,11.53
2023-03-21T21:00:18.036Z,11.51
2023-03-21T21:05:35.681Z,11.42
2023-03-21T21:11:00.497Z,11.49
2023-03-21T21:16:01.436Z,11.49
2023-03-21T21:21:06.071Z,11.42
